Time;durP1;ratioP1;P1;durP2;ratioP2;P2;SDS_P1;SDS_P2;PMS_P1;PMS_P2;Temp;Humidity;BMP_temperature;BMP_pressure;BME280_temperature;BME280_humidity;BME280_pressure;Samples;Min_cycle;Max_cycle;Signal;HPM_P1;HPM_P2
2023/05/06 00:00:45;;;;;;;8.30;5.53;;;9.70;99.90;;;;;;5036139;28;20041;-65
2023/05/06 00:03:11;;;;;;;8.32;5.80;;;9.60;99.90;;;;;;5036992;28;20045;-65
2023/05/06 00:05:37;;;;;;;8.50;5.57;;;9.70;99.90;;;;;;5038507;28;20041;-65
2023/05/06 00:08:04;;;;;;;8.35;6.47;;;9.50;99.90;;;;;;5036221;28;20051;-65
2023/05/06 00:10:30;;;;;;;7.82;6.07;;;9.60;99.90;;;;;;5038177;28;20112;-65
2023/05/06 00:12:55;;;;;;;12.05;6.07;;;9.60;99.90;;;;;;5045569;28;20124;-66
2023/05/06 00:15:21;;;;;;;9.85;6.28;;;9.60;99.90;;;;;;5043648;28;20078;-65
2023/05/06 00:17:46;;;;;;;9.75;7.05;;;9.60;99.90;;;;;;5042307;28;20099;-66
2023/05/06 00:20:13;;;;;;;10.35;6.85;;;9.70;99.90;;;;;;5040293;28;20079;-65
2023/05/06 00:22:39;;;;;;;15.95;9.23;;;9.60;99.90;;;;;;5036679;28;20426;-66
2023/05/06 00:25:05;;;;;;;14.55;8.25;;;9.70;99.90;;;;;;5041322;28;20459;-65
2023/05/06 00:27:30;;;;;;;15.38;8.80;;;9.60;99.90;;;;;;5045195;28;20079;-65
2023/05/06 00:29:56;;;;;;;13.35;8.65;;;9.70;99.90;;;;;;5043691;28;20079;-65
2023/05/06 00:32:22;;;;;;;8.25;6.13;;;9.70;99.90;;;;;;5040947;28;20033;-65
2023/05/06 00:34:47;;;;;;;7.72;5.82;;;9.70;99.90;;;;;;5045583;28;20036;-66
2023/05/06 00:37:13;;;;;;;8.60;5.82;;;9.60;99.90;;;;;;5039960;28;20219;-66
2023/05/06 00:39:38;;;;;;;9.13;6.40;;;9.60;99.90;;;;;;5042389;28;20036;-66
2023/05/06 00:42:04;;;;;;;9.32;6.80;;;9.50;99.90;;;;;;5041361;28;20078;-66
2023/05/06 00:44:33;;;;;;;10.65;7.13;;;9.60;99.90;;;;;;5038300;28;20045;-65
2023/05/06 00:47:00;;;;;;;11.15;7.72;;;9.60;99.90;;;;;;5039109;28;20114;-65
2023/05/06 00:49:27;;;;;;;12.60;7.75;;;9.50;99.90;;;;;;5044777;28;20041;-65
2023/05/06 00:51:55;;;;;;;16.25;7.45;;;9.50;99.90;;;;;;5041811;28;20427;-66
2023/05/06 00:54:22;;;;;;;9.63;6.43;;;9.60;99.90;;;;;;5040900;28;20044;-65
2023/05/06 00:56:48;;;;;;;13.23;6.75;;;9.60;99.90;;;;;;5044115;28;20049;-66
2023/05/06 00:59:14;;;;;;;9.45;6.55;;;9.60;99.90;;;;;;5038964;28;20044;-65
2023/05/06 01:01:40;;;;;;;10.70;7.35;;;9.50;99.90;;;;;;5041364;28;20048;-65
2023/05/06 01:04:06;;;;;;;16.52;9.57;;;9.60;99.90;;;;;;5041258;28;20556;-65
2023/05/06 01:06:58;;;;;;;14.30;9.18;;;9.60;99.90;;;;;;5040297;28;20091;-66
2023/05/06 01:09:41;;;;;;;18.25;11.13;;;9.60;99.90;;;;;;5044669;28;20180;-65
2023/05/06 01:12:18;;;;;;;18.33;11.13;;;9.60;99.90;;;;;;5036934;28;20060;-65
2023/05/06 01:15:13;;;;;;;19.27;11.23;;;9.70;99.90;;;;;;5038533;28;20071;-66
2023/05/06 01:17:45;;;;;;;19.05;11.38;;;9.70;99.90;;;;;;5040025;28;20036;-65
2023/05/06 01:20:11;;;;;;;21.50;11.82;;;9.80;99.90;;;;;;5042793;28;20049;-65
2023/05/06 01:22:37;;;;;;;22.10;11.73;;;9.80;99.90;;;;;;5034686;28;20130;-66
2023/05/06 01:25:04;;;;;;;26.02;13.70;;;9.80;99.90;;;;;;5038769;28;20041;-65
2023/05/06 01:27:29;;;;;;;23.23;13.07;;;9.80;99.90;;;;;;5037201;28;20361;-65
2023/05/06 01:29:56;;;;;;;22.17;14.25;;;9.70;99.90;;;;;;5039110;28;20067;-65
2023/05/06 01:32:46;;;;;;;24.85;13.75;;;9.80;99.90;;;;;;5041319;28;20391;-65
2023/05/06 01:35:36;;;;;;;21.30;12.75;;;9.80;99.90;;;;;;5060420;28;20201;-65
2023/05/06 01:38:14;;;;;;;21.92;11.50;;;9.80;99.90;;;;;;5039674;28;20128;-65
2023/05/06 01:40:42;;;;;;;222.43;17.00;;;9.80;99.90;;;;;;5038339;28;20038;-65
2023/05/06 01:43:09;;;;;;;237.13;16.40;;;9.60;99.90;;;;;;5039584;28;20059;-65
2023/05/06 01:45:36;;;;;;;97.65;9.63;;;9.50;99.90;;;;;;5036348;28;20068;-65
2023/05/06 01:48:02;;;;;;;22.80;6.78;;;9.40;99.90;;;;;;5037193;28;20049;-65
2023/05/06 01:50:29;;;;;;;10.52;6.65;;;9.30;99.90;;;;;;5051541;28;20048;-66
2023/05/06 01:52:59;;;;;;;9.25;6.95;;;9.20;99.90;;;;;;5036489;28;20254;-65
2023/05/06 01:55:25;;;;;;;12.82;8.20;;;9.10;99.90;;;;;;5036987;28;20052;-65
2023/05/06 01:57:52;;;;;;;15.10;8.88;;;9.20;99.90;;;;;;5039794;28;20395;-65
2023/05/06 02:00:18;;;;;;;14.27;9.63;;;9.20;99.90;;;;;;5033464;28;20426;-65
2023/05/06 02:02:43;;;;;;;16.60;10.07;;;9.20;99.90;;;;;;5033874;28;20052;-66
2023/05/06 02:05:09;;;;;;;17.15;10.52;;;9.30;99.90;;;;;;5038417;28;20486;-66
2023/05/06 02:07:34;;;;;;;17.80;11.20;;;9.30;99.90;;;;;;5035775;28;20146;-66
2023/05/06 02:10:00;;;;;;;21.92;12.65;;;9.40;99.90;;;;;;5035170;28;20407;-65
2023/05/06 02:12:25;;;;;;;16.52;11.32;;;9.40;99.90;;;;;;5039748;28;20471;-65
2023/05/06 02:14:51;;;;;;;15.68;10.43;;;9.50;99.90;;;;;;5037644;28;20071;-65
2023/05/06 02:17:16;;;;;;;18.75;11.55;;;9.40;99.90;;;;;;5034801;28;20045;-65
2023/05/06 02:19:42;;;;;;;15.27;10.63;;;9.50;99.90;;;;;;5038706;28;20041;-66
2023/05/06 02:22:07;;;;;;;20.67;12.00;;;9.40;99.90;;;;;;5038965;28;20663;-65
2023/05/06 02:24:33;;;;;;;21.20;12.98;;;9.40;99.90;;;;;;5034580;28;20044;-66
2023/05/06 02:26:58;;;;;;;15.88;10.25;;;9.40;99.90;;;;;;5032002;28;20044;-65
2023/05/06 02:29:24;;;;;;;17.30;11.02;;;9.30;99.90;;;;;;5052674;28;20041;-66
2023/05/06 02:31:50;;;;;;;15.45;10.20;;;9.30;99.90;;;;;;5035934;28;20426;-65
2023/05/06 02:34:16;;;;;;;14.80;9.77;;;9.30;99.90;;;;;;5053345;28;20597;-65
2023/05/06 02:36:41;;;;;;;14.43;9.57;;;9.30;99.90;;;;;;5038616;28;20044;-66
2023/05/06 02:39:07;;;;;;;15.73;9.10;;;9.30;99.90;;;;;;5035551;28;20045;-65
2023/05/06 02:41:32;;;;;;;20.65;11.63;;;9.20;99.90;;;;;;5036083;28;21854;-66
2023/05/06 02:43:58;;;;;;;48.67;14.52;;;9.20;99.90;;;;;;5052726;28;20561;-66
2023/05/06 02:46:23;;;;;;;36.65;12.85;;;9.30;99.90;;;;;;5048822;28;20045;-65
2023/05/06 02:48:49;;;;;;;19.52;11.13;;;9.30;99.90;;;;;;5037262;28;20142;-66
2023/05/06 02:51:15;;;;;;;16.02;10.05;;;9.20;99.90;;;;;;5047148;28;20048;-65
2023/05/06 02:53:40;;;;;;;30.48;13.68;;;9.30;99.90;;;;;;5035777;28;20488;-65
2023/05/06 02:56:06;;;;;;;96.63;16.20;;;9.20;99.90;;;;;;5036395;28;20067;-66
2023/05/06 02:58:31;;;;;;;11.95;7.60;;;9.10;99.90;;;;;;5036725;28;20052;-66
2023/05/06 03:00:57;;;;;;;11.85;7.97;;;9.10;99.90;;;;;;5034733;28;20414;-66
2023/05/06 03:03:22;;;;;;;51.95;10.77;;;9.10;99.90;;;;;;5036391;28;20041;-65
2023/05/06 03:05:48;;;;;;;153.75;12.00;;;9.00;99.90;;;;;;5034774;28;20068;-65
2023/05/06 03:08:13;;;;;;;88.82;11.88;;;8.90;99.90;;;;;;5038069;28;20033;-65
2023/05/06 03:10:39;;;;;;;21.77;7.80;;;8.70;99.90;;;;;;5035402;28;20048;-65
2023/05/06 03:13:05;;;;;;;12.73;8.68;;;8.70;99.90;;;;;;5035616;28;20076;-66
2023/05/06 03:15:31;;;;;;;22.77;9.10;;;8.70;99.90;;;;;;5038180;28;20187;-65
2023/05/06 03:17:56;;;;;;;25.08;8.45;;;8.70;99.90;;;;;;5040256;28;20044;-65
2023/05/06 03:20:22;;;;;;;14.57;9.00;;;8.70;99.90;;;;;;5038770;28;20041;-65
2023/05/06 03:22:48;;;;;;;57.58;11.45;;;8.70;99.90;;;;;;5034566;28;20048;-65
2023/05/06 03:25:14;;;;;;;24.45;10.40;;;8.60;99.90;;;;;;5040707;28;20041;-65
2023/05/06 03:27:40;;;;;;;30.10;8.80;;;8.60;99.90;;;;;;5036132;28;20753;-65
2023/05/06 03:30:06;;;;;;;33.92;8.80;;;8.70;99.90;;;;;;5037751;28;20032;-65
2023/05/06 03:32:31;;;;;;;37.10;10.18;;;8.60;99.90;;;;;;5018765;28;20404;-65
2023/05/06 03:34:57;;;;;;;67.18;12.55;;;8.60;99.90;;;;;;5036355;28;20036;-65
2023/05/06 03:37:22;;;;;;;26.23;10.40;;;8.60;99.90;;;;;;5039342;28;20387;-65
2023/05/06 03:39:49;;;;;;;24.92;10.45;;;8.60;99.90;;;;;;5037144;28;20090;-65
2023/05/06 03:42:15;;;;;;;18.65;9.65;;;8.60;99.90;;;;;;5033417;28;20045;-65
2023/05/06 03:44:40;;;;;;;12.02;9.13;;;8.60;99.90;;;;;;5050373;28;20454;-65
2023/05/06 03:47:06;;;;;;;40.13;13.38;;;8.60;99.90;;;;;;5037123;28;20045;-65
2023/05/06 03:49:31;;;;;;;21.60;10.85;;;8.60;99.90;;;;;;5034526;28;20041;-65
2023/05/06 03:51:57;;;;;;;14.93;9.82;;;8.60;99.90;;;;;;5035177;28;20052;-65
2023/05/06 03:54:22;;;;;;;15.93;9.38;;;8.50;99.90;;;;;;5033298;28;20055;-65
2023/05/06 03:56:48;;;;;;;14.50;10.73;;;8.60;99.90;;;;;;5033179;28;20123;-65
2023/05/06 03:59:13;;;;;;;84.22;14.77;;;8.50;99.90;;;;;;5035214;28;20040;-65
2023/05/06 04:01:39;;;;;;;20.25;12.10;;;8.50;99.90;;;;;;5049397;28;20044;-65
2023/05/06 04:04:05;;;;;;;28.73;14.38;;;8.60;99.90;;;;;;5036837;28;20072;-65
2023/05/06 04:06:30;;;;;;;30.90;13.02;;;8.50;99.90;;;;;;5032127;28;20044;-65
2023/05/06 04:08:55;;;;;;;16.45;10.75;;;8.60;99.90;;;;;;5036945;28;20048;-64
2023/05/06 04:11:21;;;;;;;22.33;13.23;;;8.50;99.90;;;;;;5034242;28;20525;-65
2023/05/06 04:13:47;;;;;;;105.45;14.90;;;8.40;99.90;;;;;;5037848;28;20056;-64
2023/05/06 04:16:12;;;;;;;17.40;10.35;;;8.50;99.90;;;;;;5037922;28;20075;-64
2023/05/06 04:18:38;;;;;;;13.82;9.52;;;8.40;99.90;;;;;;5018477;28;20044;-65
2023/05/06 04:21:04;;;;;;;11.73;7.95;;;8.40;99.90;;;;;;5034079;28;20045;-65
2023/05/06 04:23:30;;;;;;;14.27;9.60;;;8.50;99.90;;;;;;5039148;28;20037;-65
2023/05/06 04:25:56;;;;;;;20.92;12.60;;;8.30;99.90;;;;;;5039401;28;20115;-65
2023/05/06 04:28:22;;;;;;;25.98;14.73;;;8.40;99.90;;;;;;5036404;28;20047;-64
2023/05/06 04:30:48;;;;;;;28.77;15.50;;;8.40;99.90;;;;;;5032468;28;20556;-64
2023/05/06 04:33:13;;;;;;;28.60;16.65;;;8.50;99.90;;;;;;5032932;28;20044;-64
2023/05/06 04:35:39;;;;;;;25.00;14.32;;;8.50;99.90;;;;;;5033751;28;20045;-64
2023/05/06 04:38:05;;;;;;;25.58;14.85;;;8.50;99.90;;;;;;5032491;28;20041;-65
2023/05/06 04:40:33;;;;;;;66.13;16.95;;;8.60;99.90;;;;;;5037861;28;20523;-65
2023/05/06 04:42:59;;;;;;;112.80;21.45;;;8.70;99.90;;;;;;5035551;28;20045;-65
2023/05/06 04:45:25;;;;;;;68.30;18.00;;;8.70;99.90;;;;;;5036373;28;20071;-65
2023/05/06 04:47:51;;;;;;;280.63;20.30;;;8.70;99.90;;;;;;5034936;28;20131;-64
2023/05/06 04:50:16;;;;;;;135.20;16.40;;;8.80;99.90;;;;;;5037530;28;20029;-64
2023/05/06 04:52:42;;;;;;;27.45;14.38;;;8.80;99.90;;;;;;5054707;28;20047;-64
2023/05/06 04:55:08;;;;;;;21.58;13.55;;;8.80;99.90;;;;;;5052398;28;20518;-64
2023/05/06 04:57:33;;;;;;;30.40;14.88;;;8.80;99.90;;;;;;5039129;28;20040;-64
2023/05/06 04:59:59;;;;;;;30.77;15.35;;;9.00;99.90;;;;;;5042299;28;20365;-65
2023/05/06 05:02:25;;;;;;;29.83;15.65;;;9.00;99.90;;;;;;5041987;28;20384;-64
2023/05/06 05:04:50;;;;;;;29.70;15.10;;;9.10;99.90;;;;;;5043226;28;20071;-64
2023/05/06 05:07:16;;;;;;;84.13;19.45;;;9.20;99.90;;;;;;5040667;28;20043;-64
2023/05/06 05:09:41;;;;;;;94.53;19.27;;;9.30;99.90;;;;;;5039920;28;20424;-64
2023/05/06 05:12:07;;;;;;;60.67;20.15;;;9.40;99.90;;;;;;5040594;28;20041;-65
2023/05/06 05:14:32;;;;;;;67.68;23.25;;;9.50;99.90;;;;;;5053864;28;20129;-65
2023/05/06 05:16:58;;;;;;;159.25;29.98;;;9.70;99.90;;;;;;5039785;28;20387;-65
2023/05/06 05:19:23;;;;;;;54.88;21.98;;;9.80;99.90;;;;;;5051494;28;20068;-65
2023/05/06 05:21:49;;;;;;;159.02;29.27;;;9.70;99.90;;;;;;5042459;28;20052;-65
2023/05/06 05:24:15;;;;;;;120.18;25.77;;;9.90;99.90;;;;;;5043437;28;20400;-64
2023/05/06 05:26:40;;;;;;;122.05;27.23;;;9.90;99.90;;;;;;5040210;28;20308;-64
2023/05/06 05:29:06;;;;;;;155.40;29.55;;;9.90;99.90;;;;;;5040914;28;20040;-65
2023/05/06 05:31:31;;;;;;;254.98;36.42;;;10.00;99.90;;;;;;5040861;28;20036;-64
2023/05/06 05:33:57;;;;;;;253.68;37.45;;;10.20;99.90;;;;;;5038268;28;20052;-63
2023/05/06 05:36:23;;;;;;;90.80;26.75;;;10.20;99.90;;;;;;5043680;28;20442;-64
2023/05/06 05:38:49;;;;;;;233.32;37.03;;;10.20;99.90;;;;;;5043614;28;20044;-64
2023/05/06 05:41:15;;;;;;;64.18;26.08;;;10.30;99.90;;;;;;5044304;28;20594;-64
2023/05/06 05:43:40;;;;;;;78.53;30.35;;;10.20;99.90;;;;;;5041703;28;20064;-64
2023/05/06 05:46:06;;;;;;;79.32;30.52;;;10.40;99.90;;;;;;5041334;28;20047;-64
2023/05/06 05:48:32;;;;;;;76.45;31.42;;;10.30;99.90;;;;;;5042552;28;20120;-64
2023/05/06 05:50:59;;;;;;;66.03;30.02;;;10.40;99.90;;;;;;5042706;28;20048;-64
2023/05/06 05:53:25;;;;;;;90.60;33.08;;;10.40;99.90;;;;;;5040903;28;20048;-65
2023/05/06 05:55:51;;;;;;;87.13;33.38;;;10.50;99.90;;;;;;5042044;28;20052;-64
2023/05/06 05:58:16;;;;;;;106.10;34.95;;;10.70;99.90;;;;;;5039497;28;20128;-65
2023/05/06 06:00:42;;;;;;;87.50;34.22;;;10.70;99.90;;;;;;5038682;28;20049;-64
2023/05/06 06:03:07;;;;;;;63.55;29.48;;;10.80;99.90;;;;;;5055206;28;20077;-65
2023/05/06 06:05:33;;;;;;;66.05;30.08;;;10.80;99.90;;;;;;5043292;28;20041;-64
2023/05/06 06:07:59;;;;;;;60.72;29.23;;;10.70;99.90;;;;;;5037486;28;20125;-65
2023/05/06 06:10:24;;;;;;;61.38;29.50;;;10.80;99.90;;;;;;5042280;28;20369;-64
2023/05/06 06:12:50;;;;;;;66.00;31.75;;;10.90;99.90;;;;;;5054508;28;21291;-64
2023/05/06 06:15:15;;;;;;;89.80;35.20;;;11.00;99.90;;;;;;5042446;28;20045;-64
2023/05/06 06:17:42;;;;;;;68.13;31.40;;;11.10;99.90;;;;;;5041352;28;20040;-64
2023/05/06 06:20:08;;;;;;;62.30;30.88;;;11.20;99.90;;;;;;5039741;28;20064;-65
2023/05/06 06:22:33;;;;;;;60.30;29.85;;;11.20;99.90;;;;;;5039135;28;20036;-65
2023/05/06 06:24:59;;;;;;;58.97;28.95;;;11.40;99.90;;;;;;5038638;28;20486;-65
2023/05/06 06:27:24;;;;;;;60.92;31.30;;;11.40;99.90;;;;;;5020419;28;20473;-65
2023/05/06 06:29:50;;;;;;;67.72;31.98;;;11.50;99.90;;;;;;5041481;28;20055;-65
2023/05/06 06:32:15;;;;;;;68.10;30.70;;;11.60;99.90;;;;;;5037939;28;20235;-65
2023/05/06 06:34:41;;;;;;;70.35;31.90;;;11.70;99.90;;;;;;5041366;28;20526;-65
2023/05/06 06:37:09;;;;;;;65.25;31.77;;;11.80;99.90;;;;;;5039788;28;20048;-65
2023/05/06 06:39:35;;;;;;;73.40;33.83;;;11.80;99.90;;;;;;5037324;28;20532;-65
2023/05/06 06:42:05;;;;;;;78.28;33.92;;;11.90;99.90;;;;;;5042238;28;20048;-65
2023/05/06 06:44:32;;;;;;;66.78;31.52;;;12.00;99.90;;;;;;5019784;28;20037;-65
2023/05/06 06:46:58;;;;;;;73.93;33.60;;;12.10;99.90;;;;;;5020984;28;20045;-65
2023/05/06 06:49:23;;;;;;;88.65;36.28;;;12.10;99.90;;;;;;5035872;28;20047;-65
2023/05/06 06:51:50;;;;;;;74.82;34.30;;;12.20;99.90;;;;;;5038354;28;20123;-65
2023/05/06 06:54:16;;;;;;;72.15;33.25;;;12.40;99.90;;;;;;5046317;28;20044;-65
2023/05/06 06:56:41;;;;;;;85.55;36.22;;;12.60;99.90;;;;;;5038942;28;20104;-64
2023/05/06 06:59:07;;;;;;;76.72;33.92;;;12.70;99.90;;;;;;5042711;28;20043;-64
2023/05/06 07:01:33;;;;;;;77.05;33.95;;;12.90;99.90;;;;;;5042570;28;20037;-65
2023/05/06 07:03:58;;;;;;;92.65;39.03;;;12.90;99.90;;;;;;5059587;28;20141;-64
2023/05/06 07:06:24;;;;;;;96.35;39.53;;;13.10;99.90;;;;;;5041769;28;20041;-64
2023/05/06 07:08:49;;;;;;;91.60;37.70;;;13.10;99.90;;;;;;5042284;28;20033;-64
2023/05/06 07:11:15;;;;;;;94.32;38.72;;;13.30;99.90;;;;;;5037401;28;20068;-64
2023/05/06 07:13:40;;;;;;;89.57;39.33;;;13.40;99.90;;;;;;5041764;28;20512;-62
2023/05/06 07:16:06;;;;;;;97.72;41.00;;;13.50;99.90;;;;;;5044957;28;20051;-63
2023/05/06 07:18:31;;;;;;;114.10;44.80;;;13.60;99.90;;;;;;5047140;28;20041;-63
2023/05/06 07:20:57;;;;;;;110.57;44.53;;;13.70;99.90;;;;;;5045190;28;20036;-63
2023/05/06 07:23:23;;;;;;;127.90;46.78;;;13.80;99.90;;;;;;5048086;28;20036;-63
2023/05/06 07:25:48;;;;;;;108.90;41.53;;;14.00;99.90;;;;;;5046194;28;20067;-64
2023/05/06 07:28:14;;;;;;;127.38;43.55;;;14.00;99.90;;;;;;5044787;28;20037;-62
2023/05/06 07:30:40;;;;;;;113.60;41.60;;;14.10;99.90;;;;;;5044196;28;20059;-63
2023/05/06 07:33:42;;;;;;;126.40;44.58;;;14.20;99.90;;;;;;5044764;28;20051;-62
2023/05/06 07:36:08;;;;;;;112.00;41.65;;;14.20;99.90;;;;;;5047662;28;20036;-66
2023/05/06 07:38:33;;;;;;;109.53;42.03;;;14.30;99.90;;;;;;5050155;28;20052;-66
2023/05/06 07:40:59;;;;;;;108.90;39.13;;;14.40;99.90;;;;;;5047899;28;20049;-66
2023/05/06 07:43:25;;;;;;;101.32;38.80;;;14.50;99.90;;;;;;5049020;28;20402;-66
2023/05/06 07:45:51;;;;;;;104.65;39.53;;;14.50;99.90;;;;;;5052987;28;20045;-66
2023/05/06 07:48:18;;;;;;;102.07;38.53;;;14.60;99.90;;;;;;5052274;28;20039;-66
2023/05/06 07:50:44;;;;;;;91.65;36.72;;;14.60;99.90;;;;;;5050804;28;20061;-66
2023/05/06 07:53:10;;;;;;;81.95;34.10;;;14.80;99.90;;;;;;5067686;28;20072;-66
2023/05/06 07:55:46;;;;;;;81.32;34.83;;;14.90;99.90;;;;;;5050576;28;20522;-66
2023/05/06 07:58:11;;;;;;;73.15;32.00;;;15.10;99.90;;;;;;5046599;28;20036;-66
2023/05/06 08:00:38;;;;;;;69.53;30.58;;;15.20;99.90;;;;;;5052421;28;20045;-66
2023/05/06 08:03:03;;;;;;;63.05;29.98;;;15.30;99.90;;;;;;5046097;28;20377;-61
2023/05/06 08:05:30;;;;;;;63.80;29.73;;;15.50;99.90;;;;;;5049498;28;20037;-60
2023/05/06 08:07:56;;;;;;;59.85;27.98;;;15.60;99.90;;;;;;5042592;28;20033;-61
2023/05/06 08:10:21;;;;;;;47.58;25.65;;;15.60;99.90;;;;;;5046030;28;20041;-60
2023/05/06 08:12:47;;;;;;;53.45;26.52;;;15.70;99.90;;;;;;5051930;28;20243;-62
2023/05/06 08:15:13;;;;;;;49.75;25.02;;;15.80;99.90;;;;;;5057338;28;20043;-61
2023/05/06 08:17:38;;;;;;;42.65;23.42;;;15.80;99.90;;;;;;5054774;28;20554;-61
2023/05/06 08:20:05;;;;;;;43.20;23.15;;;15.90;99.90;;;;;;5041911;28;20116;-61
2023/05/06 08:22:32;;;;;;;42.88;22.83;;;16.00;99.90;;;;;;5045709;28;20045;-62
2023/05/06 08:24:58;;;;;;;39.33;21.13;;;16.10;99.90;;;;;;5049229;28;20488;-61
2023/05/06 08:27:24;;;;;;;37.97;22.17;;;16.10;99.90;;;;;;5049855;28;20090;-61
2023/05/06 08:29:50;;;;;;;35.75;22.08;;;16.20;99.90;;;;;;5045748;28;20120;-62
2023/05/06 08:32:15;;;;;;;35.30;21.08;;;16.40;99.90;;;;;;5049586;28;20519;-62
2023/05/06 08:34:41;;;;;;;36.53;21.35;;;16.50;99.90;;;;;;5056149;28;20092;-61
2023/05/06 08:37:06;;;;;;;33.33;20.35;;;16.60;99.90;;;;;;5057653;28;20033;-62
2023/05/06 08:39:32;;;;;;;33.38;19.85;;;16.70;99.90;;;;;;5065876;28;20076;-62
2023/05/06 08:41:59;;;;;;;34.15;19.67;;;16.80;99.90;;;;;;5051711;28;20124;-62
2023/05/06 08:44:25;;;;;;;36.05;20.15;;;16.90;99.90;;;;;;5049422;28;20034;-62
2023/05/06 08:46:51;;;;;;;34.28;20.70;;;17.00;99.90;;;;;;5062790;28;20537;-62
2023/05/06 08:49:16;;;;;;;33.47;20.00;;;17.10;99.90;;;;;;5050598;28;20033;-62
2023/05/06 08:51:43;;;;;;;33.95;20.15;;;17.20;99.90;;;;;;5049778;28;20033;-62
2023/05/06 08:54:10;;;;;;;30.15;18.77;;;17.30;99.90;;;;;;5054053;28;20051;-62
2023/05/06 08:56:39;;;;;;;37.22;18.40;;;17.40;99.90;;;;;;5047315;28;20495;-62
2023/05/06 08:59:07;;;;;;;29.05;17.42;;;17.40;99.90;;;;;;5049633;28;20049;-63
2023/05/06 09:01:34;;;;;;;29.08;18.33;;;17.40;99.90;;;;;;5053731;28;20072;-62
2023/05/06 09:04:02;;;;;;;29.63;17.35;;;17.40;99.90;;;;;;5050507;28;20055;-62
2023/05/06 09:06:28;;;;;;;32.53;18.90;;;17.50;99.90;;;;;;5052004;28;20037;-63
2023/05/06 09:08:54;;;;;;;30.25;18.20;;;17.50;99.90;;;;;;5054830;28;20459;-63
2023/05/06 09:11:28;;;;;;;28.08;17.65;;;17.60;99.90;;;;;;5050329;28;20443;-62
2023/05/06 09:14:13;;;;;;;28.42;17.15;;;17.60;99.90;;;;;;5046334;28;20072;-63
2023/05/06 09:16:42;;;;;;;26.08;15.95;;;17.70;99.90;;;;;;5045622;28;20037;-62
2023/05/06 09:19:07;;;;;;;25.45;16.05;;;17.80;99.90;;;;;;5048310;28;20048;-62
2023/05/06 09:21:35;;;;;;;30.23;16.20;;;17.90;99.90;;;;;;5050619;28;20033;-62
2023/05/06 09:24:01;;;;;;;26.73;16.73;;;18.10;99.90;;;;;;5063106;28;20608;-63
2023/05/06 09:26:32;;;;;;;24.83;16.60;;;18.10;99.90;;;;;;5053603;28;20857;-63
2023/05/06 09:28:58;;;;;;;26.60;16.13;;;18.20;99.90;;;;;;5047561;28;20396;-62
2023/05/06 09:31:25;;;;;;;24.88;15.50;;;18.30;99.90;;;;;;5050973;28;20045;-62
2023/05/06 09:33:52;;;;;;;24.27;16.20;;;18.40;99.90;;;;;;5064328;28;20511;-63
2023/05/06 09:36:18;;;;;;;24.83;15.70;;;18.50;99.90;;;;;;5051452;28;20127;-62
2023/05/06 09:38:43;;;;;;;24.10;15.48;;;18.70;99.90;;;;;;5060195;28;20131;-63
2023/05/06 09:41:10;;;;;;;27.70;17.02;;;18.70;99.90;;;;;;5062123;28;20602;-63
2023/05/06 09:43:36;;;;;;;23.52;16.27;;;18.80;99.90;;;;;;5048359;28;20151;-63
2023/05/06 09:46:04;;;;;;;26.13;16.10;;;18.80;99.90;;;;;;5052424;28;20038;-62
2023/05/06 09:48:31;;;;;;;26.58;15.38;;;18.90;99.90;;;;;;5054399;28;20051;-62
2023/05/06 09:50:57;;;;;;;24.83;16.35;;;18.90;99.90;;;;;;5058543;28;20038;-63
2023/05/06 09:53:24;;;;;;;24.45;16.20;;;19.00;99.90;;;;;;5054509;28;20049;-63
2023/05/06 09:55:51;;;;;;;22.38;15.85;;;19.10;99.90;;;;;;5049099;28;20036;-62
2023/05/06 09:58:17;;;;;;;24.45;16.42;;;19.10;99.90;;;;;;5047517;28;20395;-62
2023/05/06 10:00:43;;;;;;;28.55;17.50;;;19.30;99.90;;;;;;5046875;28;20041;-62
2023/05/06 10:03:10;;;;;;;24.30;16.30;;;19.40;99.90;;;;;;5046069;28;20063;-62
2023/05/06 10:05:36;;;;;;;24.33;15.75;;;19.30;99.90;;;;;;5049389;28;20041;-63
2023/05/06 10:08:06;;;;;;;21.55;15.80;;;19.50;99.90;;;;;;5040424;28;20068;-62
2023/05/06 10:10:33;;;;;;;24.77;15.10;;;19.40;99.90;;;;;;5051521;28;20522;-62
2023/05/06 10:13:01;;;;;;;25.52;16.20;;;19.70;99.90;;;;;;5050772;28;20032;-62
2023/05/06 10:15:27;;;;;;;21.88;15.55;;;19.90;99.90;;;;;;5062502;28;20467;-63
2023/05/06 10:17:53;;;;;;;22.50;15.30;;;20.10;99.90;;;;;;5052061;28;20071;-62
2023/05/06 10:20:22;;;;;;;20.65;14.48;;;20.30;99.90;;;;;;5048480;28;20550;-62
2023/05/06 10:23:16;;;;;;;24.02;14.52;;;20.30;99.90;;;;;;5045783;28;20041;-61
2023/05/06 10:25:44;;;;;;;21.88;12.35;;;20.40;99.90;;;;;;5052055;28;20049;-62
2023/05/06 10:28:11;;;;;;;16.48;9.80;;;20.30;99.90;;;;;;5057173;28;20150;-62
2023/05/06 10:30:39;;;;;;;19.02;12.15;;;20.30;99.90;;;;;;5048688;28;20037;-63
2023/05/06 10:33:06;;;;;;;20.90;13.77;;;20.20;99.90;;;;;;5048093;28;20029;-62
2023/05/06 10:36:00;;;;;;;17.55;12.57;;;20.20;99.90;;;;;;5048876;28;20049;-63
2023/05/06 10:38:31;;;;;;;19.20;12.57;;;20.00;99.90;;;;;;5051714;28;20464;-62
2023/05/06 10:40:57;;;;;;;20.50;13.43;;;20.10;99.90;;;;;;5051293;28;20051;-62
2023/05/06 10:43:31;;;;;;;23.05;13.70;;;20.20;99.90;;;;;;5051726;28;20398;-61
2023/05/06 10:46:06;;;;;;;23.25;14.65;;;20.30;99.90;;;;;;5057225;28;20037;-61
2023/05/06 10:48:32;;;;;;;21.80;14.60;;;20.30;99.90;;;;;;5053259;28;20111;-61
2023/05/06 10:51:20;;;;;;;21.23;14.20;;;20.30;99.90;;;;;;5046941;28;20087;-61
2023/05/06 10:53:57;;;;;;;19.75;11.57;;;20.40;99.90;;;;;;5042340;28;20542;-61
2023/05/06 10:56:24;;;;;;;18.15;12.65;;;20.00;99.90;;;;;;5053560;28;20048;-62
2023/05/06 10:58:52;;;;;;;20.48;13.52;;;20.10;99.90;;;;;;5046266;28;20495;-62
2023/05/06 11:01:21;;;;;;;21.30;13.30;;;20.30;99.90;;;;;;5052961;28;20044;-62
2023/05/06 11:03:46;;;;;;;21.15;13.15;;;20.20;99.90;;;;;;5054987;28;20044;-62
2023/05/06 11:06:30;;;;;;;16.98;12.85;;;20.20;99.90;;;;;;5045905;28;20598;-62
2023/05/06 11:08:57;;;;;;;17.13;11.93;;;19.90;99.90;;;;;;5055316;28;20126;-61
2023/05/06 11:12:01;;;;;;;16.42;11.23;;;19.80;99.90;;;;;;5054181;28;20036;-61
2023/05/06 11:14:36;;;;;;;18.05;11.38;;;19.60;99.90;;;;;;5036537;28;20041;-62
2023/05/06 11:17:32;;;;;;;18.35;12.18;;;19.40;99.90;;;;;;5041394;28;20033;-62
2023/05/06 11:20:24;;;;;;;19.67;11.88;;;19.30;99.90;;;;;;5048808;28;20533;-61
2023/05/06 11:22:50;;;;;;;;;;;19.20;99.90;;;;;;5048070;28;20037;-62
2023/05/06 11:25:38;;;;;;;13.73;10.55;;;19.20;99.90;;;;;;5045278;28;19924;-62
2023/05/06 11:28:11;;;;;;;15.43;10.18;;;19.40;99.90;;;;;;5037958;28;20391;-62
2023/05/06 11:30:40;;;;;;;15.00;10.93;;;19.30;99.90;;;;;;5043803;28;20043;-62
2023/05/06 11:33:07;;;;;;;17.67;11.82;;;19.30;99.90;;;;;;5045562;28;20492;-61
2023/05/06 11:35:36;;;;;;;16.23;11.40;;;19.20;99.90;;;;;;5052623;28;20434;-61
2023/05/06 11:38:03;;;;;;;14.85;11.52;;;19.00;99.90;;;;;;5041437;28;20047;-61
2023/05/06 11:40:29;;;;;;;19.40;11.43;;;19.00;99.90;;;;;;5052827;28;20111;-62
2023/05/06 11:43:17;;;;;;;18.77;10.82;;;18.90;99.90;;;;;;5044175;28;20431;-61
2023/05/06 11:45:44;;;;;;;15.80;10.85;;;19.00;99.90;;;;;;5051365;28;20048;-62
2023/05/06 11:48:11;;;;;;;18.40;11.75;;;19.30;99.90;;;;;;5054146;28;20032;-62
2023/05/06 11:50:37;;;;;;;18.23;12.00;;;19.60;99.90;;;;;;5054912;28;20044;-62
2023/05/06 11:53:03;;;;;;;17.70;11.10;;;19.70;99.90;;;;;;5048214;28;20044;-61
2023/05/06 11:55:29;;;;;;;18.63;11.38;;;19.70;99.90;;;;;;5053283;28;20037;-61
2023/05/06 11:57:54;;;;;;;15.75;11.45;;;19.70;99.90;;;;;;5060082;28;20075;-61
2023/05/06 12:00:20;;;;;;;18.65;11.68;;;19.60;99.90;;;;;;5044579;28;20426;-61
2023/05/06 12:02:45;;;;;;;16.63;10.25;;;19.50;99.90;;;;;;5044201;28;20119;-61
2023/05/06 12:05:12;;;;;;;17.02;9.73;;;19.30;99.90;;;;;;5040997;28;20066;-62
2023/05/06 12:07:41;;;;;;;16.05;9.73;;;19.10;99.90;;;;;;5051543;28;20049;-61
2023/05/06 12:10:07;;;;;;;14.88;9.93;;;19.20;99.90;;;;;;5050350;28;20032;-61
2023/05/06 12:12:33;;;;;;;16.20;9.25;;;19.30;99.90;;;;;;5047885;28;20037;-62
2023/05/06 12:14:59;;;;;;;15.40;9.88;;;19.60;99.90;;;;;;5057520;28;20111;-62
2023/05/06 12:17:25;;;;;;;14.60;9.90;;;19.90;99.90;;;;;;5043935;28;20064;-61
2023/05/06 12:19:50;;;;;;;15.00;9.43;;;20.10;99.90;;;;;;5056584;28;20044;-61
2023/05/06 12:22:18;;;;;;;13.68;8.15;;;20.40;99.90;;;;;;5051238;28;20049;-62
2023/05/06 12:24:45;;;;;;;13.48;8.43;;;20.20;99.90;;;;;;5061188;28;20186;-61
2023/05/06 12:27:11;;;;;;;13.38;9.25;;;20.10;99.90;;;;;;5055546;28;20087;-61
2023/05/06 12:29:37;;;;;;;15.00;9.23;;;20.10;99.90;;;;;;5049954;28;20032;-61
2023/05/06 12:32:08;;;;;;;13.45;8.77;;;20.20;99.90;;;;;;5046125;28;20041;-62
2023/05/06 12:34:38;;;;;;;13.68;8.75;;;20.20;99.90;;;;;;5052922;28;20131;-62